Welcome to our new website - Welkom op onze vernieuwde website - Bienvenue sur notre nouveau site web - Willkommen auf unserer neuen Website


Onweer radar Meer informatie blitzortung!


Regen radar Meer informatie rain snow radar


Andere websites:

Onze vorige site

Leuven Template



METAR rapporten vliegvelden

   
EHGG - Leeuwarden
Gewijzigd: 19-01-2020 22:55
Nevel, Helder  
Nevel, Helder  
   Wind: Westen 3.7 km/h
Wind: Westen 3.7 km/h
Temperatuur: 1°C
Dauwpunt: 1°C
Vochtigheid: 100%
Barometer: 1045 hPa
Bewolking: Helder
Zicht: 4 km
Bewolking: Helder
EHGG 192155Z AUTO 28002KT 3600 BR NCD 01/01 Q1045 BECMG 4000
EHGG - Terschelling
Gewijzigd: 19-01-2020 22:55
Nevel, Helder  
Nevel, Helder  
   Wind: Westen 3.7 km/h
Wind: Westen 3.7 km/h
Temperatuur: 1°C
Dauwpunt: 1°C
Vochtigheid: 100%
Barometer: 1045 hPa
Bewolking: Helder
Zicht: 4 km
Bewolking: Helder
EHGG 192155Z AUTO 28002KT 3600 BR NCD 01/01 Q1045 BECMG 4000
EHAM - Amsterdam
Gewijzigd: 19-01-2020 22:55
Licht bewolkt  
Licht bewolkt  
   Wind: NW 9.3 km/h
Wind: NW 9.3 km/h
Temperatuur: 2°C
Voelt als: -1°C
Dauwpunt: 1°C
Vochtigheid: 93%
Barometer: 1046 hPa
Bewolking: Licht bewolkt
Zicht: meer dan 10 km
Bewolking: Licht bewolkt 1500 ft
EHAM 192155Z 32005KT 9999 FEW015 02/01 Q1046 NOSIG
EHBK - Maastricht
Gewijzigd: 19-01-2020 22:55
Helder  
Helder  
   Wind: Noorden 9.3 km/h
Wind: Noorden 9.3 km/h
Temperatuur: 2°C
Voelt als: -1°C
Dauwpunt: 1°C
Vochtigheid: 93%
Barometer: 1045 hPa
Bewolking: Helder
Zicht: 9 km
Bewolking: Helder
EHBK 192155Z AUTO 36005KT 330V030 9000 NCD 02/01 Q1045 NOSIG
  

Script ontwikkeld door  Saratoga-weather.org Aangepast voor de template door  Weerstation Leuven

U vindt ons ook hier:

European Weather Network

Weather Underground

AWEKAS

Apparatuur in gebruik:

Weerstation
Davis VP2

Weerprogramma
Cumulus

Davis VP2

Cumulus